sensor_id;sensor_type;location;lat;lon;timestamp;temperature;humidity
47813;DHT22;34221;45.296;9.516;2023-04-27T00:00:11;14.50;66.40
47813;DHT22;34221;45.296;9.516;2023-04-27T00:00:27;14.50;66.30
47813;DHT22;34221;45.296;9.516;2023-04-27T00:00:42;14.50;66.40
47813;DHT22;34221;45.296;9.516;2023-04-27T00:00:57;14.50;66.50
47813;DHT22;34221;45.296;9.516;2023-04-27T00:01:12;14.50;66.50
47813;DHT22;34221;45.296;9.516;2023-04-27T00:01:27;14.50;66.60
47813;DHT22;34221;45.296;9.516;2023-04-27T00:01:42;14.50;66.60
47813;DHT22;34221;45.296;9.516;2023-04-27T00:01:57;14.40;66.50
47813;DHT22;34221;45.296;9.516;2023-04-27T00:02:11;14.50;66.60
47813;DHT22;34221;45.296;9.516;2023-04-27T00:02:26;14.40;66.70
47813;DHT22;34221;45.296;9.516;2023-04-27T00:02:41;14.40;66.70
47813;DHT22;34221;45.296;9.516;2023-04-27T00:02:56;14.40;66.70
47813;DHT22;34221;45.296;9.516;2023-04-27T00:03:11;14.40;66.60
47813;DHT22;34221;45.296;9.516;2023-04-27T00:03:26;14.40;66.80
47813;DHT22;34221;45.296;9.516;2023-04-27T00:03:42;14.40;66.70
47813;DHT22;34221;45.296;9.516;2023-04-27T00:03:59;14.40;67.00
47813;DHT22;34221;45.296;9.516;2023-04-27T00:04:14;14.40;67.00
47813;DHT22;34221;45.296;9.516;2023-04-27T00:04:29;14.40;67.00
47813;DHT22;34221;45.296;9.516;2023-04-27T00:04:45;14.40;66.90
47813;DHT22;34221;45.296;9.516;2023-04-27T00:04:59;14.40;66.90
47813;DHT22;34221;45.296;9.516;2023-04-27T00:05:15;14.40;67.10
47813;DHT22;34221;45.296;9.516;2023-04-27T00:05:34;14.40;67.10
47813;DHT22;34221;45.296;9.516;2023-04-27T00:05:49;14.40;67.00
47813;DHT22;34221;45.296;9.516;2023-04-27T00:06:04;14.40;67.00
47813;DHT22;34221;45.296;9.516;2023-04-27T00:06:19;14.40;67.40
47813;DHT22;34221;45.296;9.516;2023-04-27T00:06:33;14.40;67.20
47813;DHT22;34221;45.296;9.516;2023-04-27T00:06:48;14.40;67.00
47813;DHT22;34221;45.296;9.516;2023-04-27T00:07:03;14.40;67.10
47813;DHT22;34221;45.296;9.516;2023-04-27T00:07:18;14.40;67.20
47813;DHT22;34221;45.296;9.516;2023-04-27T00:07:32;14.40;67.10
47813;DHT22;34221;45.296;9.516;2023-04-27T00:07:47;14.40;66.90
47813;DHT22;34221;45.296;9.516;2023-04-27T00:08:02;14.40;67.10
47813;DHT22;34221;45.296;9.516;2023-04-27T00:08:17;14.40;67.40
47813;DHT22;34221;45.296;9.516;2023-04-27T00:08:32;14.40;67.30
47813;DHT22;34221;45.296;9.516;2023-04-27T00:08:47;14.50;67.20
47813;DHT22;34221;45.296;9.516;2023-04-27T00:09:02;14.40;67.20
47813;DHT22;34221;45.296;9.516;2023-04-27T00:09:17;14.40;67.00
47813;DHT22;34221;45.296;9.516;2023-04-27T00:09:32;14.40;67.00
47813;DHT22;34221;45.296;9.516;2023-04-27T00:09:47;14.40;67.00
47813;DHT22;34221;45.296;9.516;2023-04-27T00:10:02;14.40;67.20
47813;DHT22;34221;45.296;9.516;2023-04-27T00:10:16;14.40;67.20
47813;DHT22;34221;45.296;9.516;2023-04-27T00:10:32;14.40;67.30
47813;DHT22;34221;45.296;9.516;2023-04-27T00:10:46;14.40;67.40
47813;DHT22;34221;45.296;9.516;2023-04-27T00:11:01;14.40;67.70
47813;DHT22;34221;45.296;9.516;2023-04-27T00:11:16;14.40;67.30
47813;DHT22;34221;45.296;9.516;2023-04-27T00:11:31;14.40;67.20
47813;DHT22;34221;45.296;9.516;2023-04-27T00:11:45;14.40;67.20
47813;DHT22;34221;45.296;9.516;2023-04-27T00:12:00;14.40;67.30
47813;DHT22;34221;45.296;9.516;2023-04-27T00:12:15;14.40;67.50
47813;DHT22;34221;45.296;9.516;2023-04-27T00:12:30;14.40;67.50
47813;DHT22;34221;45.296;9.516;2023-04-27T00:12:44;14.40;67.70
47813;DHT22;34221;45.296;9.516;2023-04-27T00:13:00;14.40;67.70
47813;DHT22;34221;45.296;9.516;2023-04-27T00:13:15;14.40;67.70
47813;DHT22;34221;45.296;9.516;2023-04-27T00:13:30;14.40;67.80
47813;DHT22;34221;45.296;9.516;2023-04-27T00:13:45;14.30;67.60
47813;DHT22;34221;45.296;9.516;2023-04-27T00:14:00;14.30;67.70
47813;DHT22;34221;45.296;9.516;2023-04-27T00:14:14;14.30;67.90
47813;DHT22;34221;45.296;9.516;2023-04-27T00:14:30;14.30;67.70
47813;DHT22;34221;45.296;9.516;2023-04-27T00:14:44;14.30;68.00
47813;DHT22;34221;45.296;9.516;2023-04-27T00:14:59;14.30;68.10
47813;DHT22;34221;45.296;9.516;2023-04-27T00:15:14;14.30;68.00
47813;DHT22;34221;45.296;9.516;2023-04-27T00:15:29;14.30;68.10
47813;DHT22;34221;45.296;9.516;2023-04-27T00:15:44;14.30;68.10
47813;DHT22;34221;45.296;9.516;2023-04-27T00:16:00;14.30;68.10
47813;DHT22;34221;45.296;9.516;2023-04-27T00:16:17;14.30;68.20
47813;DHT22;34221;45.296;9.516;2023-04-27T00:16:32;14.30;67.90
47813;DHT22;34221;45.296;9.516;2023-04-27T00:16:46;14.30;67.70
47813;DHT22;34221;45.296;9.516;2023-04-27T00:17:01;14.30;68.00
47813;DHT22;34221;45.296;9.516;2023-04-27T00:17:16;14.30;68.20
47813;DHT22;34221;45.296;9.516;2023-04-27T00:17:31;14.30;68.20
47813;DHT22;34221;45.296;9.516;2023-04-27T00:17:45;14.30;68.30
47813;DHT22;34221;45.296;9.516;2023-04-27T00:18:00;14.30;68.40
47813;DHT22;34221;45.296;9.516;2023-04-27T00:18:15;14.30;68.50
47813;DHT22;34221;45.296;9.516;2023-04-27T00:18:31;14.30;68.40
47813;DHT22;34221;45.296;9.516;2023-04-27T00:18:46;14.30;68.30
47813;DHT22;34221;45.296;9.516;2023-04-27T00:19:00;14.30;68.30
47813;DHT22;34221;45.296;9.516;2023-04-27T00:19:15;14.30;68.50
47813;DHT22;34221;45.296;9.516;2023-04-27T00:19:30;14.30;68.60
47813;DHT22;34221;45.296;9.516;2023-04-27T00:19:45;14.30;68.40
47813;DHT22;34221;45.296;9.516;2023-04-27T00:20:00;14.30;69.00
47813;DHT22;34221;45.296;9.516;2023-04-27T00:20:15;14.30;68.30
47813;DHT22;34221;45.296;9.516;2023-04-27T00:20:30;14.20;68.00
47813;DHT22;34221;45.296;9.516;2023-04-27T00:20:45;14.30;68.40
47813;DHT22;34221;45.296;9.516;2023-04-27T00:21:00;14.20;68.50
47813;DHT22;34221;45.296;9.516;2023-04-27T00:21:15;14.30;69.10
47813;DHT22;34221;45.296;9.516;2023-04-27T00:21:30;14.30;68.60
47813;DHT22;34221;45.296;9.516;2023-04-27T00:21:45;14.30;68.60
47813;DHT22;34221;45.296;9.516;2023-04-27T00:22:00;14.30;68.60
47813;DHT22;34221;45.296;9.516;2023-04-27T00:22:15;14.30;68.70
47813;DHT22;34221;45.296;9.516;2023-04-27T00:22:30;14.30;68.90
47813;DHT22;34221;45.296;9.516;2023-04-27T00:22:45;14.30;69.00
47813;DHT22;34221;45.296;9.516;2023-04-27T00:22:59;14.30;69.10
47813;DHT22;34221;45.296;9.516;2023-04-27T00:23:14;14.30;69.10
47813;DHT22;34221;45.296;9.516;2023-04-27T00:23:29;14.30;69.00
47813;DHT22;34221;45.296;9.516;2023-04-27T00:23:44;14.30;68.80
47813;DHT22;34221;45.296;9.516;2023-04-27T00:23:59;14.30;68.80
47813;DHT22;34221;45.296;9.516;2023-04-27T00:24:14;14.30;68.80
47813;DHT22;34221;45.296;9.516;2023-04-27T00:24:29;14.30;68.90
47813;DHT22;34221;45.296;9.516;2023-04-27T00:24:44;14.30;69.00
47813;DHT22;34221;45.296;9.516;2023-04-27T00:24:58;14.30;69.10
47813;DHT22;34221;45.296;9.516;2023-04-27T00:25:13;14.20;69.00
47813;DHT22;34221;45.296;9.516;2023-04-27T00:25:28;14.20;68.90
47813;DHT22;34221;45.296;9.516;2023-04-27T00:25:43;14.20;68.70
47813;DHT22;34221;45.296;9.516;2023-04-27T00:25:57;14.20;68.80
47813;DHT22;34221;45.296;9.516;2023-04-27T00:26:12;14.30;69.00
47813;DHT22;34221;45.296;9.516;2023-04-27T00:26:28;14.20;69.00
47813;DHT22;34221;45.296;9.516;2023-04-27T00:26:44;14.20;69.10
47813;DHT22;34221;45.296;9.516;2023-04-27T00:26:58;14.20;69.20
47813;DHT22;34221;45.296;9.516;2023-04-27T00:27:13;14.20;69.20
47813;DHT22;34221;45.296;9.516;2023-04-27T00:27:28;14.20;69.00
47813;DHT22;34221;45.296;9.516;2023-04-27T00:27:43;14.20;69.20
47813;DHT22;34221;45.296;9.516;2023-04-27T00:27:57;14.20;69.10
47813;DHT22;34221;45.296;9.516;2023-04-27T00:28:12;14.20;69.10
47813;DHT22;34221;45.296;9.516;2023-04-27T00:28:27;14.20;69.30
47813;DHT22;34221;45.296;9.516;2023-04-27T00:28:42;14.20;69.60
47813;DHT22;34221;45.296;9.516;2023-04-27T00:28:56;14.20;69.70
47813;DHT22;34221;45.296;9.516;2023-04-27T00:29:12;14.20;69.50
47813;DHT22;34221;45.296;9.516;2023-04-27T00:29:27;14.20;69.50
47813;DHT22;34221;45.296;9.516;2023-04-27T00:29:42;14.20;69.40
47813;DHT22;34221;45.296;9.516;2023-04-27T00:29:56;14.20;69.40
47813;DHT22;34221;45.296;9.516;2023-04-27T00:30:11;14.20;69.30
47813;DHT22;34221;45.296;9.516;2023-04-27T00:30:46;14.20;69.40
47813;DHT22;34221;45.296;9.516;2023-04-27T00:31:02;14.20;69.60
47813;DHT22;34221;45.296;9.516;2023-04-27T00:31:18;14.20;69.70
47813;DHT22;34221;45.296;9.516;2023-04-27T00:31:32;14.30;69.60
47813;DHT22;34221;45.296;9.516;2023-04-27T00:31:47;14.30;69.40
47813;DHT22;34221;45.296;9.516;2023-04-27T00:32:02;14.20;69.50
47813;DHT22;34221;45.296;9.516;2023-04-27T00:32:17;14.20;69.60
47813;DHT22;34221;45.296;9.516;2023-04-27T00:32:32;14.20;69.50
47813;DHT22;34221;45.296;9.516;2023-04-27T00:32:47;14.20;69.40
47813;DHT22;34221;45.296;9.516;2023-04-27T00:33:04;14.20;69.50
47813;DHT22;34221;45.296;9.516;2023-04-27T00:33:20;14.20;69.30
47813;DHT22;34221;45.296;9.516;2023-04-27T00:33:35;14.20;69.40
47813;DHT22;34221;45.296;9.516;2023-04-27T00:33:50;14.20;69.30
47813;DHT22;34221;45.296;9.516;2023-04-27T00:34:05;14.20;69.00
47813;DHT22;34221;45.296;9.516;2023-04-27T00:34:20;14.20;68.90
47813;DHT22;34221;45.296;9.516;2023-04-27T00:34:36;14.20;69.00
47813;DHT22;34221;45.296;9.516;2023-04-27T00:34:51;14.20;68.80
47813;DHT22;34221;45.296;9.516;2023-04-27T00:35:06;14.20;68.80
47813;DHT22;34221;45.296;9.516;2023-04-27T00:35:21;14.20;68.80
47813;DHT22;34221;45.296;9.516;2023-04-27T00:35:36;14.20;68.70
47813;DHT22;34221;45.296;9.516;2023-04-27T00:35:50;14.20;69.00
47813;DHT22;34221;45.296;9.516;2023-04-27T00:36:05;14.20;68.80
47813;DHT22;34221;45.296;9.516;2023-04-27T00:36:20;14.20;69.00
47813;DHT22;34221;45.296;9.516;2023-04-27T00:36:36;14.20;68.90
47813;DHT22;34221;45.296;9.516;2023-04-27T00:36:51;14.20;68.80
47813;DHT22;34221;45.296;9.516;2023-04-27T00:37:08;14.20;69.00
47813;DHT22;34221;45.296;9.516;2023-04-27T00:37:23;14.20;68.80
47813;DHT22;34221;45.296;9.516;2023-04-27T00:37:38;14.20;68.80
47813;DHT22;34221;45.296;9.516;2023-04-27T00:37:53;14.20;68.50
47813;DHT22;34221;45.296;9.516;2023-04-27T00:38:08;14.20;68.70
47813;DHT22;34221;45.296;9.516;2023-04-27T00:38:23;14.20;69.00
47813;DHT22;34221;45.296;9.516;2023-04-27T00:38:38;14.20;69.30
47813;DHT22;34221;45.296;9.516;2023-04-27T00:38:53;14.20;69.10
47813;DHT22;34221;45.296;9.516;2023-04-27T00:39:08;14.20;68.90
47813;DHT22;34221;45.296;9.516;2023-04-27T00:39:23;14.20;68.80
47813;DHT22;34221;45.296;9.516;2023-04-27T00:39:37;14.20;69.00
47813;DHT22;34221;45.296;9.516;2023-04-27T00:39:52;14.20;68.70
47813;DHT22;34221;45.296;9.516;2023-04-27T00:40:07;14.20;68.50
47813;DHT22;34221;45.296;9.516;2023-04-27T00:40:22;14.20;68.80
47813;DHT22;34221;45.296;9.516;2023-04-27T00:40:37;14.20;68.80
47813;DHT22;34221;45.296;9.516;2023-04-27T00:41:02;14.20;68.70
47813;DHT22;34221;45.296;9.516;2023-04-27T00:41:17;14.20;68.90
47813;DHT22;34221;45.296;9.516;2023-04-27T00:41:32;14.20;69.00
47813;DHT22;34221;45.296;9.516;2023-04-27T00:41:50;14.20;69.20
47813;DHT22;34221;45.296;9.516;2023-04-27T00:42:05;14.20;69.40
47813;DHT22;34221;45.296;9.516;2023-04-27T00:42:24;14.20;69.10
47813;DHT22;34221;45.296;9.516;2023-04-27T00:42:39;14.20;68.80
47813;DHT22;34221;45.296;9.516;2023-04-27T00:42:54;14.20;68.90
47813;DHT22;34221;45.296;9.516;2023-04-27T00:43:09;14.20;69.20
47813;DHT22;34221;45.296;9.516;2023-04-27T00:43:24;14.20;69.20
47813;DHT22;34221;45.296;9.516;2023-04-27T00:43:43;14.20;69.20
47813;DHT22;34221;45.296;9.516;2023-04-27T00:43:58;14.20;69.30
47813;DHT22;34221;45.296;9.516;2023-04-27T00:44:22;14.20;69.00
47813;DHT22;34221;45.296;9.516;2023-04-27T00:44:37;14.20;68.90
47813;DHT22;34221;45.296;9.516;2023-04-27T00:44:51;14.20;69.10
47813;DHT22;34221;45.296;9.516;2023-04-27T00:45:07;14.20;69.10
47813;DHT22;34221;45.296;9.516;2023-04-27T00:45:22;14.20;69.10
47813;DHT22;34221;45.296;9.516;2023-04-27T00:45:41;14.20;69.10
47813;DHT22;34221;45.296;9.516;2023-04-27T00:46:02;14.20;69.10
47813;DHT22;34221;45.296;9.516;2023-04-27T00:46:17;14.20;69.00
47813;DHT22;34221;45.296;9.516;2023-04-27T00:46:34;14.20;69.10
47813;DHT22;34221;45.296;9.516;2023-04-27T00:46:48;14.20;69.10
47813;DHT22;34221;45.296;9.516;2023-04-27T00:47:04;14.20;69.10
47813;DHT22;34221;45.296;9.516;2023-04-27T00:47:19;14.20;69.20
47813;DHT22;34221;45.296;9.516;2023-04-27T00:47:34;14.20;69.30
47813;DHT22;34221;45.296;9.516;2023-04-27T00:47:50;14.20;69.20
47813;DHT22;34221;45.296;9.516;2023-04-27T00:48:06;14.20;69.20
47813;DHT22;34221;45.296;9.516;2023-04-27T00:48:20;14.20;69.40
47813;DHT22;34221;45.296;9.516;2023-04-27T00:48:36;14.20;69.20
47813;DHT22;34221;45.296;9.516;2023-04-27T00:48:51;14.20;69.00
47813;DHT22;34221;45.296;9.516;2023-04-27T00:49:06;14.20;69.40
47813;DHT22;34221;45.296;9.516;2023-04-27T00:49:21;14.20;69.50
47813;DHT22;34221;45.296;9.516;2023-04-27T00:49:37;14.20;69.40
47813;DHT22;34221;45.296;9.516;2023-04-27T00:49:52;14.10;69.50
47813;DHT22;34221;45.296;9.516;2023-04-27T00:50:07;14.20;69.30
47813;DHT22;34221;45.296;9.516;2023-04-27T00:50:27;14.10;69.20
47813;DHT22;34221;45.296;9.516;2023-04-27T00:50:45;14.10;68.90
47813;DHT22;34221;45.296;9.516;2023-04-27T00:51:00;14.20;68.90
47813;DHT22;34221;45.296;9.516;2023-04-27T00:51:15;14.20;68.90
47813;DHT22;34221;45.296;9.516;2023-04-27T00:51:30;14.20;69.30
47813;DHT22;34221;45.296;9.516;2023-04-27T00:51:46;14.20;69.40
47813;DHT22;34221;45.296;9.516;2023-04-27T00:52:01;14.20;69.40
47813;DHT22;34221;45.296;9.516;2023-04-27T00:52:16;14.20;69.00
47813;DHT22;34221;45.296;9.516;2023-04-27T00:52:31;14.20;69.10
47813;DHT22;34221;45.296;9.516;2023-04-27T00:52:46;14.20;68.90
47813;DHT22;34221;45.296;9.516;2023-04-27T00:53:04;14.20;68.80
47813;DHT22;34221;45.296;9.516;2023-04-27T00:53:20;14.20;69.20
47813;DHT22;34221;45.296;9.516;2023-04-27T00:53:37;14.20;69.20
47813;DHT22;34221;45.296;9.516;2023-04-27T00:53:52;14.20;69.40
47813;DHT22;34221;45.296;9.516;2023-04-27T00:54:07;14.20;69.10
47813;DHT22;34221;45.296;9.516;2023-04-27T00:54:22;14.10;69.10
47813;DHT22;34221;45.296;9.516;2023-04-27T00:54:39;14.10;69.20
47813;DHT22;34221;45.296;9.516;2023-04-27T00:54:56;14.10;69.40
47813;DHT22;34221;45.296;9.516;2023-04-27T00:55:11;14.10;69.30
47813;DHT22;34221;45.296;9.516;2023-04-27T00:55:28;14.10;69.30
47813;DHT22;34221;45.296;9.516;2023-04-27T00:55:43;14.10;69.60
47813;DHT22;34221;45.296;9.516;2023-04-27T00:55:58;14.10;69.80
47813;DHT22;34221;45.296;9.516;2023-04-27T00:56:12;14.10;69.70
47813;DHT22;34221;45.296;9.516;2023-04-27T00:56:27;14.10;69.80
47813;DHT22;34221;45.296;9.516;2023-04-27T00:56:43;14.10;69.70
47813;DHT22;34221;45.296;9.516;2023-04-27T00:56:58;14.10;69.60
47813;DHT22;34221;45.296;9.516;2023-04-27T00:57:13;14.10;69.60
47813;DHT22;34221;45.296;9.516;2023-04-27T00:57:32;14.10;69.40
47813;DHT22;34221;45.296;9.516;2023-04-27T00:57:47;14.10;69.40
47813;DHT22;34221;45.296;9.516;2023-04-27T00:58:02;14.20;69.60
47813;DHT22;34221;45.296;9.516;2023-04-27T00:58:17;14.10;69.70
47813;DHT22;34221;45.296;9.516;2023-04-27T00:58:34;14.10;69.70
47813;DHT22;34221;45.296;9.516;2023-04-27T00:58:49;14.10;69.80
47813;DHT22;34221;45.296;9.516;2023-04-27T00:59:04;14.10;69.60
47813;DHT22;34221;45.296;9.516;2023-04-27T00:59:19;14.10;69.50
47813;DHT22;34221;45.296;9.516;2023-04-27T00:59:34;14.10;69.50
47813;DHT22;34221;45.296;9.516;2023-04-27T00:59:48;14.10;69.50
47813;DHT22;34221;45.296;9.516;2023-04-27T01:00:04;14.10;69.60
47813;DHT22;34221;45.296;9.516;2023-04-27T01:00:24;14.10;69.50
47813;DHT22;34221;45.296;9.516;2023-04-27T01:00:39;14.10;69.90
47813;DHT22;34221;45.296;9.516;2023-04-27T01:00:54;14.10;69.90
47813;DHT22;34221;45.296;9.516;2023-04-27T01:01:10;14.10;70.10
47813;DHT22;34221;45.296;9.516;2023-04-27T01:01:25;14.10;69.90
47813;DHT22;34221;45.296;9.516;2023-04-27T01:01:40;14.10;69.80
47813;DHT22;34221;45.296;9.516;2023-04-27T01:01:55;14.10;70.20
47813;DHT22;34221;45.296;9.516;2023-04-27T01:02:10;14.10;70.10
47813;DHT22;34221;45.296;9.516;2023-04-27T01:02:26;14.10;70.00
47813;DHT22;34221;45.296;9.516;2023-04-27T01:02:42;14.10;70.70
47813;DHT22;34221;45.296;9.516;2023-04-27T01:02:57;14.10;70.10
47813;DHT22;34221;45.296;9.516;2023-04-27T01:03:12;14.10;70.00
47813;DHT22;34221;45.296;9.516;2023-04-27T01:03:27;14.10;70.00
47813;DHT22;34221;45.296;9.516;2023-04-27T01:03:43;14.10;70.00
47813;DHT22;34221;45.296;9.516;2023-04-27T01:03:58;14.10;70.20
47813;DHT22;34221;45.296;9.516;2023-04-27T01:04:13;14.10;70.80
47813;DHT22;34221;45.296;9.516;2023-04-27T01:04:28;14.10;70.10
47813;DHT22;34221;45.296;9.516;2023-04-27T01:04:43;14.10;70.00
47813;DHT22;34221;45.296;9.516;2023-04-27T01:04:58;14.10;70.20
47813;DHT22;34221;45.296;9.516;2023-04-27T01:05:13;14.10;70.10
47813;DHT22;34221;45.296;9.516;2023-04-27T01:05:28;14.10;70.20
47813;DHT22;34221;45.296;9.516;2023-04-27T01:05:43;14.10;70.30
47813;DHT22;34221;45.296;9.516;2023-04-27T01:05:58;14.10;70.20
47813;DHT22;34221;45.296;9.516;2023-04-27T01:06:15;14.10;70.20
47813;DHT22;34221;45.296;9.516;2023-04-27T01:06:48;14.00;70.60
47813;DHT22;34221;45.296;9.516;2023-04-27T01:07:03;14.00;70.10
47813;DHT22;34221;45.296;9.516;2023-04-27T01:07:24;14.00;70.10
47813;DHT22;34221;45.296;9.516;2023-04-27T01:07:39;14.10;70.40
47813;DHT22;34221;45.296;9.516;2023-04-27T01:07:54;14.00;70.40
47813;DHT22;34221;45.296;9.516;2023-04-27T01:08:09;14.00;70.40
47813;DHT22;34221;45.296;9.516;2023-04-27T01:08:24;14.00;70.40
47813;DHT22;34221;45.296;9.516;2023-04-27T01:08:39;14.00;70.60
47813;DHT22;34221;45.296;9.516;2023-04-27T01:08:54;14.00;70.60
47813;DHT22;34221;45.296;9.516;2023-04-27T01:09:09;14.00;70.40
47813;DHT22;34221;45.296;9.516;2023-04-27T01:09:25;14.00;70.70
47813;DHT22;34221;45.296;9.516;2023-04-27T01:09:39;14.00;70.20
47813;DHT22;34221;45.296;9.516;2023-04-27T01:09:54;14.00;70.40
47813;DHT22;34221;45.296;9.516;2023-04-27T01:10:09;14.00;70.70
47813;DHT22;34221;45.296;9.516;2023-04-27T01:10:24;14.00;70.90
47813;DHT22;34221;45.296;9.516;2023-04-27T01:10:39;14.00;70.60
47813;DHT22;34221;45.296;9.516;2023-04-27T01:10:54;14.00;70.20
47813;DHT22;34221;45.296;9.516;2023-04-27T01:11:09;14.00;70.50
47813;DHT22;34221;45.296;9.516;2023-04-27T01:11:27;14.00;70.30
47813;DHT22;34221;45.296;9.516;2023-04-27T01:11:41;14.00;70.60
47813;DHT22;34221;45.296;9.516;2023-04-27T01:11:56;14.00;70.80
47813;DHT22;34221;45.296;9.516;2023-04-27T01:12:11;14.00;70.50
47813;DHT22;34221;45.296;9.516;2023-04-27T01:12:26;14.00;70.50
47813;DHT22;34221;45.296;9.516;2023-04-27T01:12:41;14.00;70.60
47813;DHT22;34221;45.296;9.516;2023-04-27T01:12:56;14.00;70.50
47813;DHT22;34221;45.296;9.516;2023-04-27T01:13:11;14.00;70.50
47813;DHT22;34221;45.296;9.516;2023-04-27T01:13:25;14.00;70.80
47813;DHT22;34221;45.296;9.516;2023-04-27T01:13:40;14.00;70.80
47813;DHT22;34221;45.296;9.516;2023-04-27T01:13:55;14.00;70.80
47813;DHT22;34221;45.296;9.516;2023-04-27T01:14:11;14.00;70.60
47813;DHT22;34221;45.296;9.516;2023-04-27T01:14:26;14.00;70.80
47813;DHT22;34221;45.296;9.516;2023-04-27T01:14:40;14.00;70.90
47813;DHT22;34221;45.296;9.516;2023-04-27T01:14:55;14.00;71.10
47813;DHT22;34221;45.296;9.516;2023-04-27T01:15:10;14.00;70.90
47813;DHT22;34221;45.296;9.516;2023-04-27T01:15:26;14.00;71.00
47813;DHT22;34221;45.296;9.516;2023-04-27T01:15:41;14.00;70.90
47813;DHT22;34221;45.296;9.516;2023-04-27T01:15:57;14.00;70.90
47813;DHT22;34221;45.296;9.516;2023-04-27T01:16:12;14.00;71.00
47813;DHT22;34221;45.296;9.516;2023-04-27T01:16:27;14.00;71.10
47813;DHT22;34221;45.296;9.516;2023-04-27T01:16:42;14.00;71.00
47813;DHT22;34221;45.296;9.516;2023-04-27T01:16:57;13.90;71.00
47813;DHT22;34221;45.296;9.516;2023-04-27T01:17:13;14.00;70.80
47813;DHT22;34221;45.296;9.516;2023-04-27T01:17:27;13.90;70.80
47813;DHT22;34221;45.296;9.516;2023-04-27T01:17:42;14.00;70.90
47813;DHT22;34221;45.296;9.516;2023-04-27T01:17:58;13.90;70.70
47813;DHT22;34221;45.296;9.516;2023-04-27T01:18:13;14.00;71.10
47813;DHT22;34221;45.296;9.516;2023-04-27T01:18:28;13.90;71.10
47813;DHT22;34221;45.296;9.516;2023-04-27T01:18:45;14.00;71.30
47813;DHT22;34221;45.296;9.516;2023-04-27T01:19:00;13.90;71.30
47813;DHT22;34221;45.296;9.516;2023-04-27T01:19:15;13.90;71.00
47813;DHT22;34221;45.296;9.516;2023-04-27T01:19:31;13.90;70.90
47813;DHT22;34221;45.296;9.516;2023-04-27T01:19:45;13.90;71.10
47813;DHT22;34221;45.296;9.516;2023-04-27T01:20:01;13.90;71.20
47813;DHT22;34221;45.296;9.516;2023-04-27T01:20:16;13.90;71.10
47813;DHT22;34221;45.296;9.516;2023-04-27T01:20:31;13.90;71.10
47813;DHT22;34221;45.296;9.516;2023-04-27T01:20:46;13.90;70.90
47813;DHT22;34221;45.296;9.516;2023-04-27T01:21:00;13.90;71.00
47813;DHT22;34221;45.296;9.516;2023-04-27T01:21:15;13.90;71.10
47813;DHT22;34221;45.296;9.516;2023-04-27T01:21:30;13.90;71.40
47813;DHT22;34221;45.296;9.516;2023-04-27T01:21:46;13.90;71.50
47813;DHT22;34221;45.296;9.516;2023-04-27T01:22:01;13.90;71.40
47813;DHT22;34221;45.296;9.516;2023-04-27T01:22:16;13.90;71.40
47813;DHT22;34221;45.296;9.516;2023-04-27T01:22:31;13.90;71.70
47813;DHT22;34221;45.296;9.516;2023-04-27T01:22:46;13.90;71.70
47813;DHT22;34221;45.296;9.516;2023-04-27T01:23:01;13.90;71.60
47813;DHT22;34221;45.296;9.516;2023-04-27T01:23:15;13.90;71.50
47813;DHT22;34221;45.296;9.516;2023-04-27T01:23:30;13.90;71.90
47813;DHT22;34221;45.296;9.516;2023-04-27T01:23:45;13.90;71.90
47813;DHT22;34221;45.296;9.516;2023-04-27T01:24:00;13.90;71.70
47813;DHT22;34221;45.296;9.516;2023-04-27T01:24:14;13.90;71.60
47813;DHT22;34221;45.296;9.516;2023-04-27T01:24:30;13.90;71.50
47813;DHT22;34221;45.296;9.516;2023-04-27T01:24:45;13.90;71.50
47813;DHT22;34221;45.296;9.516;2023-04-27T01:25:00;13.90;71.60
47813;DHT22;34221;45.296;9.516;2023-04-27T01:25:15;13.90;71.60
47813;DHT22;34221;45.296;9.516;2023-04-27T01:25:30;13.90;71.40
47813;DHT22;34221;45.296;9.516;2023-04-27T01:25:45;13.80;71.40
47813;DHT22;34221;45.296;9.516;2023-04-27T01:25:59;13.90;71.60
47813;DHT22;34221;45.296;9.516;2023-04-27T01:26:14;13.80;71.60
47813;DHT22;34221;45.296;9.516;2023-04-27T01:26:30;13.90;71.70
47813;DHT22;34221;45.296;9.516;2023-04-27T01:26:45;13.90;71.60
47813;DHT22;34221;45.296;9.516;2023-04-27T01:26:59;13.90;71.90
47813;DHT22;34221;45.296;9.516;2023-04-27T01:27:15;13.90;72.10
47813;DHT22;34221;45.296;9.516;2023-04-27T01:27:31;13.80;72.10
47813;DHT22;34221;45.296;9.516;2023-04-27T01:27:46;13.80;71.90
47813;DHT22;34221;45.296;9.516;2023-04-27T01:28:00;13.80;71.60
47813;DHT22;34221;45.296;9.516;2023-04-27T01:28:15;13.80;71.60
47813;DHT22;34221;45.296;9.516;2023-04-27T01:28:30;13.80;71.50
47813;DHT22;34221;45.296;9.516;2023-04-27T01:28:47;13.80;71.70
47813;DHT22;34221;45.296;9.516;2023-04-27T01:29:02;13.80;71.90
47813;DHT22;34221;45.296;9.516;2023-04-27T01:29:17;13.80;72.60
47813;DHT22;34221;45.296;9.516;2023-04-27T01:29:32;13.80;71.90
47813;DHT22;34221;45.296;9.516;2023-04-27T01:29:46;13.80;71.80
47813;DHT22;34221;45.296;9.516;2023-04-27T01:30:01;13.80;71.40
47813;DHT22;34221;45.296;9.516;2023-04-27T01:30:17;13.80;71.50
47813;DHT22;34221;45.296;9.516;2023-04-27T01:30:31;13.80;71.80
47813;DHT22;34221;45.296;9.516;2023-04-27T01:30:47;13.80;72.10
47813;DHT22;34221;45.296;9.516;2023-04-27T01:31:01;13.80;72.20
47813;DHT22;34221;45.296;9.516;2023-04-27T01:31:16;13.80;72.20
47813;DHT22;34221;45.296;9.516;2023-04-27T01:31:31;13.80;72.10
47813;DHT22;34221;45.296;9.516;2023-04-27T01:31:46;13.80;72.40
47813;DHT22;34221;45.296;9.516;2023-04-27T01:32:01;13.80;72.30
47813;DHT22;34221;45.296;9.516;2023-04-27T01:32:15;13.80;72.30
47813;DHT22;34221;45.296;9.516;2023-04-27T01:32:30;13.80;73.10
47813;DHT22;34221;45.296;9.516;2023-04-27T01:32:45;13.80;72.30
47813;DHT22;34221;45.296;9.516;2023-04-27T01:33:00;13.80;72.10
47813;DHT22;34221;45.296;9.516;2023-04-27T01:33:14;13.70;72.30
47813;DHT22;34221;45.296;9.516;2023-04-27T01:33:29;13.70;72.10
47813;DHT22;34221;45.296;9.516;2023-04-27T01:33:44;13.70;72.80
47813;DHT22;34221;45.296;9.516;2023-04-27T01:34:01;13.70;72.80
47813;DHT22;34221;45.296;9.516;2023-04-27T01:34:17;13.70;72.70
47813;DHT22;34221;45.296;9.516;2023-04-27T01:34:35;13.70;72.30
47813;DHT22;34221;45.296;9.516;2023-04-27T01:34:50;13.70;72.30
47813;DHT22;34221;45.296;9.516;2023-04-27T01:35:05;13.70;72.80
47813;DHT22;34221;45.296;9.516;2023-04-27T01:35:20;13.70;73.40
47813;DHT22;34221;45.296;9.516;2023-04-27T01:35:35;13.70;72.30
47813;DHT22;34221;45.296;9.516;2023-04-27T01:35:50;13.70;72.60
47813;DHT22;34221;45.296;9.516;2023-04-27T01:36:05;13.60;72.90
47813;DHT22;34221;45.296;9.516;2023-04-27T01:36:20;13.60;72.80
47813;DHT22;34221;45.296;9.516;2023-04-27T01:36:36;13.60;72.80
47813;DHT22;34221;45.296;9.516;2023-04-27T01:36:51;13.60;72.70
47813;DHT22;34221;45.296;9.516;2023-04-27T01:37:06;13.60;72.50